sensor_id;sensor_type;location;lat;lon;timestamp;pressure;altitude;pressure_sealevel;temperature;humidity
32456;BME280;18912;43.270;27.942;2023-06-22T00:00:59;98344.19;;;24.83;54.13
32456;BME280;18912;43.270;27.942;2023-06-22T00:03:26;98345.31;;;24.82;54.01
32456;BME280;18912;43.270;27.942;2023-06-22T00:05:52;98341.56;;;24.73;54.21
32456;BME280;18912;43.270;27.942;2023-06-22T00:08:18;98338.81;;;24.73;54.23
32456;BME280;18912;43.270;27.942;2023-06-22T00:10:45;98341.88;;;24.66;54.55
32456;BME280;18912;43.270;27.942;2023-06-22T00:13:12;98347.09;;;24.68;54.05
32456;BME280;18912;43.270;27.942;2023-06-22T00:15:39;98348.75;;;24.69;54.15
32456;BME280;18912;43.270;27.942;2023-06-22T00:18:09;98353.81;;;24.62;54.56
32456;BME280;18912;43.270;27.942;2023-06-22T00:20:35;98353.31;;;24.55;54.77
32456;BME280;18912;43.270;27.942;2023-06-22T00:23:06;98348.38;;;24.52;54.94
32456;BME280;18912;43.270;27.942;2023-06-22T00:25:36;98352.06;;;24.42;55.30
32456;BME280;18912;43.270;27.942;2023-06-22T00:28:03;98354.22;;;24.45;55.46
32456;BME280;18912;43.270;27.942;2023-06-22T00:30:30;98359.34;;;24.62;54.92
32456;BME280;18912;43.270;27.942;2023-06-22T00:32:55;98360.50;;;24.56;55.31
32456;BME280;18912;43.270;27.942;2023-06-22T00:35:21;98356.38;;;24.53;54.77
32456;BME280;18912;43.270;27.942;2023-06-22T00:37:46;98355.66;;;24.43;55.15
32456;BME280;18912;43.270;27.942;2023-06-22T00:40:12;98353.94;;;24.47;55.27
32456;BME280;18912;43.270;27.942;2023-06-22T00:42:38;98356.38;;;24.53;55.08
32456;BME280;18912;43.270;27.942;2023-06-22T00:45:05;98353.06;;;24.51;55.12
32456;BME280;18912;43.270;27.942;2023-06-22T00:47:32;98353.31;;;24.55;54.96
32456;BME280;18912;43.270;27.942;2023-06-22T00:49:59;98352.25;;;24.51;55.26
32456;BME280;18912;43.270;27.942;2023-06-22T00:52:26;98353.69;;;24.43;55.58
32456;BME280;18912;43.270;27.942;2023-06-22T00:54:54;98359.53;;;24.42;55.05
32456;BME280;18912;43.270;27.942;2023-06-22T00:57:21;98355.66;;;24.43;54.55
32456;BME280;18912;43.270;27.942;2023-06-22T00:59:48;98355.75;;;24.33;54.32
32456;BME280;18912;43.270;27.942;2023-06-22T01:02:14;98356.91;;;24.27;54.96
32456;BME280;18912;43.270;27.942;2023-06-22T01:04:40;98357.50;;;24.24;54.70
32456;BME280;18912;43.270;27.942;2023-06-22T01:07:22;98358.88;;;24.21;54.77
32456;BME280;18912;43.270;27.942;2023-06-22T01:10:06;98356.59;;;24.28;54.36
32456;BME280;18912;43.270;27.942;2023-06-22T01:12:34;98350.28;;;24.23;54.47
32456;BME280;18912;43.270;27.942;2023-06-22T01:15:21;98352.22;;;24.22;54.62
32456;BME280;18912;43.270;27.942;2023-06-22T01:17:52;98354.19;;;24.22;55.20
32456;BME280;18912;43.270;27.942;2023-06-22T01:20:20;98343.94;;;24.22;55.38
32456;BME280;18912;43.270;27.942;2023-06-22T01:23:09;98350.53;;;24.26;55.68
32456;BME280;18912;43.270;27.942;2023-06-22T01:25:48;98353.66;;;24.15;55.62
32456;BME280;18912;43.270;27.942;2023-06-22T01:28:43;98352.00;;;24.19;55.33
32456;BME280;18912;43.270;27.942;2023-06-22T01:31:09;98345.38;;;24.20;55.43
32456;BME280;18912;43.270;27.942;2023-06-22T01:33:39;98337.03;;;24.25;55.31
32456;BME280;18912;43.270;27.942;2023-06-22T01:36:06;98348.66;;;24.22;55.40
32456;BME280;18912;43.270;27.942;2023-06-22T01:38:32;98355.25;;;24.26;55.20
32456;BME280;18912;43.270;27.942;2023-06-22T01:41:00;98343.94;;;24.22;55.50
32456;BME280;18912;43.270;27.942;2023-06-22T01:43:27;98350.28;;;24.28;55.55
32456;BME280;18912;43.270;27.942;2023-06-22T01:45:54;98334.19;;;24.30;55.87
32456;BME280;18912;43.270;27.942;2023-06-22T01:48:21;98343.91;;;24.27;56.64
32456;BME280;18912;43.270;27.942;2023-06-22T01:50:47;98345.84;;;24.27;56.22
32456;BME280;18912;43.270;27.942;2023-06-22T01:53:12;98358.50;;;24.33;56.68
32456;BME280;18912;43.270;27.942;2023-06-22T01:55:38;98354.84;;;24.37;56.52
32456;BME280;18912;43.270;27.942;2023-06-22T01:58:03;98351.22;;;24.42;56.13
32456;BME280;18912;43.270;27.942;2023-06-22T02:00:33;98358.16;;;24.39;56.73
32456;BME280;18912;43.270;27.942;2023-06-22T02:03:23;98356.56;;;24.33;56.81
32456;BME280;18912;43.270;27.942;2023-06-22T02:06:19;98351.16;;;24.47;56.24
32456;BME280;18912;43.270;27.942;2023-06-22T02:08:49;98355.66;;;24.43;56.31
32456;BME280;18912;43.270;27.942;2023-06-22T02:11:18;98353.16;;;24.41;56.68
32456;BME280;18912;43.270;27.942;2023-06-22T02:13:46;98360.59;;;24.46;56.77
32456;BME280;18912;43.270;27.942;2023-06-22T02:16:13;98361.66;;;24.50;56.67
32456;BME280;18912;43.270;27.942;2023-06-22T02:18:48;98364.22;;;24.41;56.64
32456;BME280;18912;43.270;27.942;2023-06-22T02:21:20;98360.91;;;24.39;56.60
32456;BME280;18912;43.270;27.942;2023-06-22T02:23:46;98353.75;;;24.38;56.38
32456;BME280;18912;43.270;27.942;2023-06-22T02:26:12;98363.97;;;24.38;56.61
32456;BME280;18912;43.270;27.942;2023-06-22T02:28:37;98370.66;;;24.32;56.95
32456;BME280;18912;43.270;27.942;2023-06-22T02:31:03;98370.72;;;24.27;57.08
32456;BME280;18912;43.270;27.942;2023-06-22T02:33:28;98378.38;;;24.35;56.75
32456;BME280;18912;43.270;27.942;2023-06-22T02:35:54;98370.94;;;24.35;56.48
32456;BME280;18912;43.270;27.942;2023-06-22T02:38:20;98375.56;;;24.40;56.49
32456;BME280;18912;43.270;27.942;2023-06-22T02:40:46;98374.16;;;24.42;56.71
32456;BME280;18912;43.270;27.942;2023-06-22T02:43:12;98374.41;;;24.46;56.53
32456;BME280;18912;43.270;27.942;2023-06-22T02:45:38;98383.84;;;24.40;57.06
32456;BME280;18912;43.270;27.942;2023-06-22T02:48:04;98388.59;;;24.34;57.21
32456;BME280;18912;43.270;27.942;2023-06-22T02:50:30;98388.41;;;24.26;57.83
32456;BME280;18912;43.270;27.942;2023-06-22T02:52:55;98390.63;;;24.24;57.80
32456;BME280;18912;43.270;27.942;2023-06-22T02:55:21;98396.50;;;24.46;57.18
32456;BME280;18912;43.270;27.942;2023-06-22T02:57:46;98396.38;;;24.61;57.02
32456;BME280;18912;43.270;27.942;2023-06-22T03:00:13;98396.59;;;24.69;56.70
32456;BME280;18912;43.270;27.942;2023-06-22T03:02:44;98404.59;;;24.66;56.87
32456;BME280;18912;43.270;27.942;2023-06-22T03:05:10;98403.66;;;24.52;57.37
32456;BME280;18912;43.270;27.942;2023-06-22T03:07:41;98410.56;;;24.49;57.51
32456;BME280;18912;43.270;27.942;2023-06-22T03:10:08;98404.47;;;24.52;57.30
32456;BME280;18912;43.270;27.942;2023-06-22T03:12:35;98391.09;;;24.64;57.43
32456;BME280;18912;43.270;27.942;2023-06-22T03:15:00;98397.91;;;24.77;57.55
32456;BME280;18912;43.270;27.942;2023-06-22T03:17:26;98393.94;;;24.88;57.39
32456;BME280;18912;43.270;27.942;2023-06-22T03:19:51;98396.00;;;25.01;57.16
32456;BME280;18912;43.270;27.942;2023-06-22T03:22:17;98389.06;;;25.04;56.99
32456;BME280;18912;43.270;27.942;2023-06-22T03:24:42;98388.69;;;25.10;57.53
32456;BME280;18912;43.270;27.942;2023-06-22T03:27:07;98398.06;;;25.14;57.57
32456;BME280;18912;43.270;27.942;2023-06-22T03:29:33;98403.25;;;25.21;57.60
32456;BME280;18912;43.270;27.942;2023-06-22T03:31:59;98405.06;;;25.30;57.46
32456;BME280;18912;43.270;27.942;2023-06-22T03:34:24;98404.59;;;25.23;58.10
32456;BME280;18912;43.270;27.942;2023-06-22T03:36:50;98405.53;;;25.37;57.58
32456;BME280;18912;43.270;27.942;2023-06-22T03:39:16;98412.00;;;25.51;57.90
32456;BME280;18912;43.270;27.942;2023-06-22T03:41:41;98400.38;;;25.54;57.90
32456;BME280;18912;43.270;27.942;2023-06-22T03:44:07;98406.03;;;25.63;58.01
32456;BME280;18912;43.270;27.942;2023-06-22T03:46:35;98407.19;;;25.80;57.67
32456;BME280;18912;43.270;27.942;2023-06-22T03:49:01;98412.50;;;25.96;57.51
32456;BME280;18912;43.270;27.942;2023-06-22T03:51:28;98411.84;;;26.04;57.62
32456;BME280;18912;43.270;27.942;2023-06-22T03:53:53;98405.28;;;26.18;57.52
32456;BME280;18912;43.270;27.942;2023-06-22T03:56:19;98413.19;;;26.43;57.09
32456;BME280;18912;43.270;27.942;2023-06-22T03:58:46;98423.41;;;26.61;56.95
32456;BME280;18912;43.270;27.942;2023-06-22T04:01:11;98415.16;;;26.75;56.55
32456;BME280;18912;43.270;27.942;2023-06-22T04:03:37;98417.75;;;26.85;56.31
32456;BME280;18912;43.270;27.942;2023-06-22T04:06:03;98424.84;;;26.91;56.40
32456;BME280;18912;43.270;27.942;2023-06-22T04:08:29;98417.66;;;26.76;56.48
32456;BME280;18912;43.270;27.942;2023-06-22T04:10:55;98414.59;;;26.92;56.34
32456;BME280;18912;43.270;27.942;2023-06-22T04:13:20;98422.63;;;27.07;56.09
32456;BME280;18912;43.270;27.942;2023-06-22T04:15:46;98423.13;;;27.22;55.78
32456;BME280;18912;43.270;27.942;2023-06-22T04:18:11;98421.59;;;27.30;55.44
32456;BME280;18912;43.270;27.942;2023-06-22T04:20:37;98437.06;;;27.49;55.31
32456;BME280;18912;43.270;27.942;2023-06-22T04:23:03;98435.50;;;27.70;55.17
32456;BME280;18912;43.270;27.942;2023-06-22T04:25:28;98432.00;;;27.79;54.91
32456;BME280;18912;43.270;27.942;2023-06-22T04:27:54;98432.09;;;28.01;54.55
32456;BME280;18912;43.270;27.942;2023-06-22T04:30:19;98440.78;;;28.21;53.83
32456;BME280;18912;43.270;27.942;2023-06-22T04:32:45;98436.06;;;28.44;53.50
32456;BME280;18912;43.270;27.942;2023-06-22T04:35:10;98441.59;;;28.57;53.78
32456;BME280;18912;43.270;27.942;2023-06-22T04:37:36;98438.25;;;28.69;53.34
32456;BME280;18912;43.270;27.942;2023-06-22T04:40:02;98442.41;;;28.80;53.39
32456;BME280;18912;43.270;27.942;2023-06-22T04:42:30;98438.53;;;28.90;53.08
32456;BME280;18912;43.270;27.942;2023-06-22T04:44:57;98453.31;;;29.21;51.74
32456;BME280;18912;43.270;27.942;2023-06-22T04:47:22;98443.59;;;29.40;51.58
32456;BME280;18912;43.270;27.942;2023-06-22T04:49:47;98444.97;;;29.60;51.03
32456;BME280;18912;43.270;27.942;2023-06-22T04:52:13;98449.81;;;29.85;50.09
32456;BME280;18912;43.270;27.942;2023-06-22T04:54:45;98457.72;;;30.00;49.74
32456;BME280;18912;43.270;27.942;2023-06-22T04:57:20;98457.63;;;30.31;49.41
32456;BME280;18912;43.270;27.942;2023-06-22T04:59:45;98460.03;;;30.15;47.32
32456;BME280;18912;43.270;27.942;2023-06-22T05:02:11;98452.06;;;30.57;46.91
32456;BME280;18912;43.270;27.942;2023-06-22T05:04:37;98453.69;;;30.83;46.33
32456;BME280;18912;43.270;27.942;2023-06-22T05:07:03;98453.13;;;31.15;45.88
32456;BME280;18912;43.270;27.942;2023-06-22T05:09:30;98451.28;;;31.37;44.63
32456;BME280;18912;43.270;27.942;2023-06-22T05:11:55;98451.47;;;31.40;44.36
32456;BME280;18912;43.270;27.942;2023-06-22T05:14:27;98459.72;;;31.66;44.46
32456;BME280;18912;43.270;27.942;2023-06-22T05:16:52;98456.84;;;32.12;44.05
32456;BME280;18912;43.270;27.942;2023-06-22T05:19:18;98456.13;;;32.24;43.05
32456;BME280;18912;43.270;27.942;2023-06-22T05:21:43;98460.84;;;32.52;42.10
32456;BME280;18912;43.270;27.942;2023-06-22T05:24:09;98460.75;;;32.81;41.66
32456;BME280;18912;43.270;27.942;2023-06-22T05:26:34;98457.00;;;32.77;41.70
32456;BME280;18912;43.270;27.942;2023-06-22T05:29:01;98454.38;;;32.93;40.25
32456;BME280;18912;43.270;27.942;2023-06-22T05:31:27;98453.72;;;32.75;39.64
32456;BME280;18912;43.270;27.942;2023-06-22T05:33:54;98451.09;;;33.12;39.57
32456;BME280;18912;43.270;27.942;2023-06-22T05:36:20;98457.38;;;33.09;39.74
32456;BME280;18912;43.270;27.942;2023-06-22T05:38:47;98456.41;;;33.37;38.76
32456;BME280;18912;43.270;27.942;2023-06-22T05:41:12;98459.69;;;33.39;38.77
32456;BME280;18912;43.270;27.942;2023-06-22T05:43:39;98458.91;;;33.51;38.47
32456;BME280;18912;43.270;27.942;2023-06-22T05:46:05;98450.72;;;33.82;38.15
32456;BME280;18912;43.270;27.942;2023-06-22T05:48:30;98455.06;;;33.67;38.23
32456;BME280;18912;43.270;27.942;2023-06-22T05:50:56;98451.91;;;34.05;38.04
32456;BME280;18912;43.270;27.942;2023-06-22T05:53:21;98449.97;;;34.57;37.08
32456;BME280;18912;43.270;27.942;2023-06-22T05:55:47;98449.63;;;34.59;37.27
32456;BME280;18912;43.270;27.942;2023-06-22T05:58:12;98453.09;;;34.68;36.25
32456;BME280;18912;43.270;27.942;2023-06-22T06:00:41;98441.91;;;34.44;36.32
32456;BME280;18912;43.270;27.942;2023-06-22T06:03:08;98447.75;;;34.78;36.20
32456;BME280;18912;43.270;27.942;2023-06-22T06:05:34;98449.78;;;35.06;35.65
32456;BME280;18912;43.270;27.942;2023-06-22T06:08:01;98447.78;;;35.06;35.84
32456;BME280;18912;43.270;27.942;2023-06-22T06:10:27;98445.59;;;35.00;35.15
32456;BME280;18912;43.270;27.942;2023-06-22T06:12:55;98447.16;;;35.13;35.64
32456;BME280;18912;43.270;27.942;2023-06-22T06:15:20;98437.69;;;35.33;35.00
32456;BME280;18912;43.270;27.942;2023-06-22T06:17:51;98450.44;;;35.30;34.92
32456;BME280;18912;43.270;27.942;2023-06-22T06:20:19;98453.50;;;35.68;34.54
32456;BME280;18912;43.270;27.942;2023-06-22T06:22:46;98460.13;;;35.76;34.39
32456;BME280;18912;43.270;27.942;2023-06-22T06:25:12;98458.88;;;35.58;34.21
32456;BME280;18912;43.270;27.942;2023-06-22T06:27:48;98456.56;;;35.79;34.45
32456;BME280;18912;43.270;27.942;2023-06-22T06:30:16;98454.81;;;36.21;34.05
32456;BME280;18912;43.270;27.942;2023-06-22T06:32:42;98448.38;;;36.21;33.67
32456;BME280;18912;43.270;27.942;2023-06-22T06:35:09;98453.13;;;36.01;33.51
32456;BME280;18912;43.270;27.942;2023-06-22T06:37:39;98452.25;;;36.32;33.47
32456;BME280;18912;43.270;27.942;2023-06-22T06:40:06;98452.31;;;36.35;32.68
32456;BME280;18912;43.270;27.942;2023-06-22T06:42:48;98465.34;;;36.59;33.02
32456;BME280;18912;43.270;27.942;2023-06-22T06:45:23;98463.28;;;37.13;31.95
32456;BME280;18912;43.270;27.942;2023-06-22T06:47:51;98464.97;;;37.18;31.34
32456;BME280;18912;43.270;27.942;2023-06-22T06:50:17;98452.44;;;36.23;33.31
32456;BME280;18912;43.270;27.942;2023-06-22T06:52:43;98452.47;;;36.96;33.12
32456;BME280;18912;43.270;27.942;2023-06-22T06:55:09;98461.84;;;37.65;32.40
32456;BME280;18912;43.270;27.942;2023-06-22T06:57:39;98464.19;;;37.59;30.97
32456;BME280;18912;43.270;27.942;2023-06-22T07:00:06;98478.97;;;37.75;31.41
32456;BME280;18912;43.270;27.942;2023-06-22T07:02:41;98471.97;;;37.69;31.31
32456;BME280;18912;43.270;27.942;2023-06-22T07:05:07;98472.44;;;37.71;30.89
32456;BME280;18912;43.270;27.942;2023-06-22T07:26:18;98486.72;;;37.36;30.71
32456;BME280;18912;43.270;27.942;2023-06-22T07:28:43;98486.75;;;37.59;31.14
32456;BME280;18912;43.270;27.942;2023-06-22T07:31:09;98487.38;;;37.11;31.22
32456;BME280;18912;43.270;27.942;2023-06-22T07:33:34;98486.44;;;37.03;31.10
32456;BME280;18912;43.270;27.942;2023-06-22T07:36:00;98484.69;;;36.61;30.64
32456;BME280;18912;43.270;27.942;2023-06-22T07:38:25;98482.13;;;37.09;31.08
32456;BME280;18912;43.270;27.942;2023-06-22T07:40:51;98487.97;;;37.20;32.38
32456;BME280;18912;43.270;27.942;2023-06-22T07:43:18;98485.84;;;37.32;30.65
32456;BME280;18912;43.270;27.942;2023-06-22T07:45:50;98489.28;;;37.26;31.55
32456;BME280;18912;43.270;27.942;2023-06-22T07:48:22;98484.72;;;38.05;29.54
32456;BME280;18912;43.270;27.942;2023-06-22T07:50:48;98487.72;;;38.42;28.66
32456;BME280;18912;43.270;27.942;2023-06-22T07:53:14;98490.94;;;38.96;27.86
32456;BME280;18912;43.270;27.942;2023-06-22T07:55:40;98500.41;;;38.77;28.15
32456;BME280;18912;43.270;27.942;2023-06-22T07:58:05;98491.88;;;39.40;27.58
32456;BME280;18912;43.270;27.942;2023-06-22T08:00:30;98471.72;;;39.08;26.76
32456;BME280;18912;43.270;27.942;2023-06-22T08:02:58;98487.25;;;39.58;26.60
32456;BME280;18912;43.270;27.942;2023-06-22T08:05:23;98490.06;;;39.98;26.35
32456;BME280;18912;43.270;27.942;2023-06-22T08:07:49;98480.13;;;39.75;27.00
32456;BME280;18912;43.270;27.942;2023-06-22T08:10:15;98491.16;;;40.34;27.67
32456;BME280;18912;43.270;27.942;2023-06-22T08:12:40;98489.38;;;40.73;26.57
32456;BME280;18912;43.270;27.942;2023-06-22T08:15:06;98475.16;;;40.63;25.34
32456;BME280;18912;43.270;27.942;2023-06-22T08:17:33;98491.53;;;40.94;25.88
32456;BME280;18912;43.270;27.942;2023-06-22T08:19:58;98483.50;;;41.17;24.38
32456;BME280;18912;43.270;27.942;2023-06-22T08:22:23;98484.47;;;41.56;24.49
32456;BME280;18912;43.270;27.942;2023-06-22T08:24:49;98485.31;;;41.71;23.81
32456;BME280;18912;43.270;27.942;2023-06-22T08:27:15;98481.63;;;41.56;24.59
32456;BME280;18912;43.270;27.942;2023-06-22T08:29:42;98469.75;;;41.16;24.69
32456;BME280;18912;43.270;27.942;2023-06-22T08:32:11;98476.94;;;40.27;25.47
32456;BME280;18912;43.270;27.942;2023-06-22T08:34:37;98478.78;;;40.02;25.80
32456;BME280;18912;43.270;27.942;2023-06-22T08:37:02;98480.31;;;39.52;25.46
32456;BME280;18912;43.270;27.942;2023-06-22T08:39:31;98480.47;;;40.10;25.34
32456;BME280;18912;43.270;27.942;2023-06-22T08:41:57;98483.16;;;40.50;25.62
32456;BME280;18912;43.270;27.942;2023-06-22T08:44:22;98469.53;;;40.77;24.97
32456;BME280;18912;43.270;27.942;2023-06-22T08:46:48;98478.91;;;40.81;25.06
32456;BME280;18912;43.270;27.942;2023-06-22T08:49:13;98482.88;;;40.69;25.50
32456;BME280;18912;43.270;27.942;2023-06-22T08:51:39;98466.31;;;40.14;26.15
32456;BME280;18912;43.270;27.942;2023-06-22T08:54:04;98469.69;;;40.33;26.62
32456;BME280;18912;43.270;27.942;2023-06-22T08:56:30;98467.63;;;39.76;26.56
32456;BME280;18912;43.270;27.942;2023-06-22T08:58:55;98468.50;;;39.47;26.20
32456;BME280;18912;43.270;27.942;2023-06-22T09:01:21;98477.03;;;39.90;26.02
32456;BME280;18912;43.270;27.942;2023-06-22T09:03:47;98463.75;;;40.49;25.29
32456;BME280;18912;43.270;27.942;2023-06-22T09:06:22;98461.13;;;40.23;25.50
32456;BME280;18912;43.270;27.942;2023-06-22T09:08:47;98468.81;;;39.75;26.93
32456;BME280;18912;43.270;27.942;2023-06-22T09:11:14;98466.59;;;39.94;28.09
32456;BME280;18912;43.270;27.942;2023-06-22T09:13:39;98473.47;;;39.53;28.49
32456;BME280;18912;43.270;27.942;2023-06-22T09:16:05;98471.91;;;40.03;28.16
32456;BME280;18912;43.270;27.942;2023-06-22T09:18:30;98472.66;;;40.51;26.56
32456;BME280;18912;43.270;27.942;2023-06-22T09:20:56;98475.03;;;40.42;26.65
32456;BME280;18912;43.270;27.942;2023-06-22T09:29:27;98467.16;;;39.70;27.70
32456;BME280;18912;43.270;27.942;2023-06-22T09:31:52;98472.00;;;39.33;29.43
32456;BME280;18912;43.270;27.942;2023-06-22T09:34:21;98480.78;;;38.91;29.61
32456;BME280;18912;43.270;27.942;2023-06-22T09:36:46;98479.50;;;39.15;29.85
32456;BME280;18912;43.270;27.942;2023-06-22T09:39:12;98474.69;;;39.19;28.95
32456;BME280;18912;43.270;27.942;2023-06-22T09:41:37;98480.34;;;37.62;35.59
32456;BME280;18912;43.270;27.942;2023-06-22T09:44:03;98469.75;;;35.75;39.40
32456;BME280;18912;43.270;27.942;2023-06-22T09:46:28;98464.34;;;35.39;39.91
32456;BME280;18912;43.270;27.942;2023-06-22T09:48:54;98470.13;;;34.75;40.59
32456;BME280;18912;43.270;27.942;2023-06-22T09:51:20;98478.28;;;34.52;40.12
32456;BME280;18912;43.270;27.942;2023-06-22T09:53:47;98468.91;;;34.88;40.11
32456;BME280;18912;43.270;27.942;2023-06-22T09:56:13;98478.91;;;34.73;40.96
32456;BME280;18912;43.270;27.942;2023-06-22T09:58:44;98485.97;;;35.23;40.24
32456;BME280;18912;43.270;27.942;2023-06-22T10:01:10;98486.09;;;34.99;39.22
32456;BME280;18912;43.270;27.942;2023-06-22T10:03:36;98479.06;;;35.05;38.36
32456;BME280;18912;43.270;27.942;2023-06-22T10:06:02;98476.34;;;34.29;40.24
32456;BME280;18912;43.270;27.942;2023-06-22T10:08:27;98483.00;;;34.24;39.62
32456;BME280;18912;43.270;27.942;2023-06-22T10:10:53;98471.16;;;34.82;39.74
32456;BME280;18912;43.270;27.942;2023-06-22T10:13:18;98479.00;;;34.49;39.31
32456;BME280;18912;43.270;27.942;2023-06-22T10:15:44;98474.78;;;34.43;39.62
32456;BME280;18912;43.270;27.942;2023-06-22T10:18:15;98479.75;;;33.98;40.20
32456;BME280;18912;43.270;27.942;2023-06-22T10:20:41;98485.13;;;34.15;39.15
32456;BME280;18912;43.270;27.942;2023-06-22T10:23:07;98483.78;;;33.52;40.32
32456;BME280;18912;43.270;27.942;2023-06-22T10:25:32;98475.44;;;32.78;40.63
32456;BME280;18912;43.270;27.942;2023-06-22T10:27:57;98474.72;;;31.99;42.15
32456;BME280;18912;43.270;27.942;2023-06-22T10:30:23;98492.00;;;33.37;40.38
32456;BME280;18912;43.270;27.942;2023-06-22T10:32:49;98499.78;;;33.76;38.44
32456;BME280;18912;43.270;27.942;2023-06-22T10:35:14;98481.13;;;34.16;39.03
32456;BME280;18912;43.270;27.942;2023-06-22T10:37:42;98502.38;;;33.81;38.66
32456;BME280;18912;43.270;27.942;2023-06-22T10:40:08;98476.34;;;33.92;38.44
32456;BME280;18912;43.270;27.942;2023-06-22T10:42:34;98476.44;;;34.20;39.13
32456;BME280;18912;43.270;27.942;2023-06-22T10:45:00;98484.00;;;33.59;39.55
32456;BME280;18912;43.270;27.942;2023-06-22T10:47:25;98473.75;;;33.87;39.50
32456;BME280;18912;43.270;27.942;2023-06-22T10:49:51;98474.13;;;33.98;39.10
32456;BME280;18912;43.270;27.942;2023-06-22T10:52:16;98472.91;;;33.63;39.43
32456;BME280;18912;43.270;27.942;2023-06-22T10:54:42;98470.25;;;33.54;39.24
32456;BME280;18912;43.270;27.942;2023-06-22T10:57:07;98470.22;;;33.10;40.69
32456;BME280;18912;43.270;27.942;2023-06-22T10:59:33;98466.44;;;33.38;39.96
32456;BME280;18912;43.270;27.942;2023-06-22T11:01:58;98460.44;;;32.62;41.85
32456;BME280;18912;43.270;27.942;2023-06-22T11:04:24;98465.91;;;33.12;40.74
32456;BME280;18912;43.270;27.942;2023-06-22T11:06:50;98458.94;;;33.87;40.33
32456;BME280;18912;43.270;27.942;2023-06-22T11:09:16;98476.75;;;33.46;41.01
32456;BME280;18912;43.270;27.942;2023-06-22T11:11:46;98471.06;;;33.55;39.96
32456;BME280;18912;43.270;27.942;2023-06-22T11:14:12;98467.03;;;33.44;40.10
32456;BME280;18912;43.270;27.942;2023-06-22T11:16:37;98462.44;;;33.72;38.92
32456;BME280;18912;43.270;27.942;2023-06-22T11:19:05;98452.59;;;33.90;39.33
32456;BME280;18912;43.270;27.942;2023-06-22T11:21:30;98468.94;;;33.76;39.14
32456;BME280;18912;43.270;27.942;2023-06-22T11:23:57;98459.88;;;34.15;38.57
32456;BME280;18912;43.270;27.942;2023-06-22T11:26:22;98454.47;;;34.10;38.71
32456;BME280;18912;43.270;27.942;2023-06-22T11:28:48;98470.41;;;33.37;38.77
32456;BME280;18912;43.270;27.942;2023-06-22T11:31:14;98477.84;;;33.90;39.59
32456;BME280;18912;43.270;27.942;2023-06-22T11:33:39;98481.50;;;33.46;39.09
32456;BME280;18912;43.270;27.942;2023-06-22T11:36:05;98475.72;;;32.65;41.22
32456;BME280;18912;43.270;27.942;2023-06-22T11:38:30;98472.44;;;33.49;40.48
32456;BME280;18912;43.270;27.942;2023-06-22T11:40:58;98476.09;;;32.63;41.17
32456;BME280;18912;43.270;27.942;2023-06-22T11:43:23;98464.13;;;33.08;41.75
32456;BME280;18912;43.270;27.942;2023-06-22T11:45:49;98484.59;;;32.87;40.00
32456;BME280;18912;43.270;27.942;2023-06-22T11:48:15;98459.59;;;32.82;40.43
32456;BME280;18912;43.270;27.942;2023-06-22T11:50:41;98464.38;;;33.02;40.17
32456;BME280;18912;43.270;27.942;2023-06-22T11:53:06;98457.00;;;33.43;40.19
32456;BME280;18912;43.270;27.942;2023-06-22T11:55:31;98461.34;;;33.08;40.78
32456;BME280;18912;43.270;27.942;2023-06-22T11:57:57;98465.09;;;33.12;39.63
32456;BME280;18912;43.270;27.942;2023-06-22T12:00:29;98451.84;;;33.33;40.45
32456;BME280;18912;43.270;27.942;2023-06-22T12:02:55;98474.00;;;33.82;39.34
32456;BME280;18912;43.270;27.942;2023-06-22T12:05:21;98465.09;;;32.91;40.46
32456;BME280;18912;43.270;27.942;2023-06-22T12:07:48;98455.41;;;33.09;40.35
32456;BME280;18912;43.270;27.942;2023-06-22T12:10:14;98449.47;;;32.90;40.48
32456;BME280;18912;43.270;27.942;2023-06-22T12:12:40;98452.09;;;32.95;40.38
32456;BME280;18912;43.270;27.942;2023-06-22T12:15:05;98443.47;;;33.57;39.18
32456;BME280;18912;43.270;27.942;2023-06-22T12:17:31;98459.03;;;33.78;39.81
32456;BME280;18912;43.270;27.942;2023-06-22T12:19:58;98446.44;;;33.16;40.66
32456;BME280;18912;43.270;27.942;2023-06-22T12:22:23;98453.25;;;33.39;40.57
32456;BME280;18912;43.270;27.942;2023-06-22T12:24:49;98456.59;;;32.87;40.56
32456;BME280;18912;43.270;27.942;2023-06-22T12:27:15;98445.84;;;33.55;40.24
32456;BME280;18912;43.270;27.942;2023-06-22T12:29:43;98457.28;;;32.84;40.31
32456;BME280;18912;43.270;27.942;2023-06-22T12:32:08;98461.16;;;33.25;40.65
32456;BME280;18912;43.270;27.942;2023-06-22T12:34:34;98454.28;;;33.34;40.50
32456;BME280;18912;43.270;27.942;2023-06-22T12:36:59;98465.00;;;33.53;40.34
32456;BME280;18912;43.270;27.942;2023-06-22T12:39:25;98441.53;;;33.13;39.68
32456;BME280;18912;43.270;27.942;2023-06-22T12:41:50;98448.63;;;33.10;39.40
32456;BME280;18912;43.270;27.942;2023-06-22T12:44:17;98443.19;;;33.26;39.38
32456;BME280;18912;43.270;27.942;2023-06-22T12:46:42;98447.53;;;32.49;36.89
32456;BME280;18912;43.270;27.942;2023-06-22T12:49:08;98445.69;;;32.12;39.88
32456;BME280;18912;43.270;27.942;2023-06-22T12:51:33;98436.91;;;31.93;39.19
32456;BME280;18912;43.270;27.942;2023-06-22T12:54:04;98449.19;;;32.71;39.07
32456;BME280;18912;43.270;27.942;2023-06-22T12:56:29;98445.84;;;32.89;38.83
32456;BME280;18912;43.270;27.942;2023-06-22T12:58:55;98450.72;;;32.80;37.84
32456;BME280;18912;43.270;27.942;2023-06-22T13:01:21;98449.38;;;32.45;37.09
32456;BME280;18912;43.270;27.942;2023-06-22T13:03:47;98455.72;;;32.54;39.49
32456;BME280;18912;43.270;27.942;2023-06-22T13:06:12;98445.28;;;32.63;36.24
32456;BME280;18912;43.270;27.942;2023-06-22T13:08:38;98450.59;;;32.97;37.18
32456;BME280;18912;43.270;27.942;2023-06-22T13:11:03;98457.28;;;32.64;38.03
32456;BME280;18912;43.270;27.942;2023-06-22T13:13:29;98460.22;;;32.88;37.47